Aqua Ramon, Colorado
Current Conditions -  °F | °C
As of 4:30 AM on Thursday 27 Nov 2014 (Local Time) from KRCV Reporting Station
Clear Clear  
Wind Chill: -9°   Ceiling: Unl
Heat Index: -4°   Visibility: 10mi
Dew Point: -11°   Wind: 10mph
Humidity: 58%   Direction: 250°WSW
Pressure: 30.5"   Gusts: NA
Location:  37.6359°N, 106.449°W
Report Text: KRCV 271130Z AUTO 25009KT 10SM CLR M04/M11 A3050 RMK AO2 T10381109
Loading
Personal Weather Stations






























Interactive Weather Map New forecast layout! Learn more

10-Day Weather Forecast

Advertisements
Track Severe Weather on mobile